Погода Задняя Грядана 2 недели

Могилёвская область, Белоруссия

23 июля-05 августа
  • 23июля
    Сегодня
    +14°
    +27°
    Ясно и безоблачно
    ВремяПогодаТемператураВлажностьДавлениеВетер, м/сВероятность осадков
    00:00Ясно и безоблачно+17°C93 %747 мм1.6 м/с2 %
    03:00Ясно и безоблачно+16°C95 %747 мм1.7 м/с2 %
    06:00Ясно и безоблачно+15°C96 %747 мм2.3 м/с2 %
    09:00Ясно и безоблачно+21°C79 %748 мм2.7 м/с2 %
    12:00Практически безоблачно+25°C58 %748 мм3.6 м/с1 %
    15:00Ясно и безоблачно+27°C52 %747 мм3.7 м/с13 %
    18:00Ясно и безоблачно+26°C52 %747 мм3.3 м/с4 %
    21:00Небольшая облачность+22°C67 %747 мм1.9 м/с2 %
  • 24июля
    Среда
    +14°
    +27°
    Небольшая облачность
    ВремяПогодаТемператураВлажностьДавлениеВетер, м/сВероятность осадков
    00:00Ясно и безоблачно+18°C79 %747 мм2.2 м/с2 %
    03:00Практически безоблачно+16°C67 %747 мм2.5 м/с2 %
    06:00Ясно и безоблачно+15°C73 %747 мм1.9 м/с2 %
    09:00Ясно и безоблачно+21°C65 %747 мм1.3 м/с2 %
    12:00Небольшая облачность+25°C45 %747 мм2.0 м/с8 %
    15:00Небольшая облачность+26°C42 %746 мм3.2 м/с12 %
    18:00Практически безоблачно+25°C43 %745 мм3.2 м/с6 %
    21:00Практически безоблачно+23°C52 %745 мм3.0 м/с2 %
  • 25июля
    Четверг
    +16°
    +26°
    Облачно с прояснениями
    ВремяПогодаТемператураВлажностьДавлениеВетер, м/сВероятность осадков
    00:00Небольшая облачность+18°C60 %746 мм3.1 м/с2 %
    03:00Практически безоблачно+16°C70 %745 мм1.8 м/с2 %
    06:00Облачно с прояснениями+15°C72 %745 мм2.4 м/с2 %
    09:00Облачно с прояснениями+20°C58 %745 мм3.0 м/с2 %
    12:00Облачно с прояснениями+23°C39 %745 мм5.1 м/с2 %
    15:00Облачно с прояснениями+25°C36 %745 мм4.1 м/с3 %
    18:00Пасмурно, сплошная облачность+26°C35 %745 мм3.5 м/с6 %
    21:00Облачно с прояснениями+22°C50 %745 мм2.4 м/с4 %
  • 26июля
    Пятница
    +15°
    +28°
    Практически безоблачно
    ВремяПогодаТемператураВлажностьДавлениеВетер, м/сВероятность осадков
    00:00Облачно с прояснениями+18°C57 %745 мм3.0 м/с3 %
    03:00Облачно с прояснениями+17°C65 %746 мм3.0 м/с2 %
    06:00Пасмурно, сплошная облачность+17°C65 %746 мм3.0 м/с2 %
    09:00Небольшая облачность+21°C56 %747 мм2.1 м/с4 %
    12:00Практически безоблачно+25°C39 %748 мм2.9 м/с17 %
    15:00Практически безоблачно+27°C38 %748 мм2.7 м/с27 %
    18:00Небольшая облачность+27°C40 %748 мм2.6 м/с30 %
    21:00Практически безоблачно+23°C61 %749 мм1.7 м/с16 %
  • 27июля
    Суббота
    +17°
    +29°
    Практически безоблачно
    ВремяПогодаТемператураВлажностьДавлениеВетер, м/сВероятность осадков
    00:00Ясно и безоблачно+19°C81 %750 мм1.7 м/с18 %
    03:00Ясно и безоблачно+17°C91 %750 мм1.6 м/с19 %
    06:00Ясно и безоблачно+16°C94 %751 мм1.2 м/с22 %
    09:00Ясно и безоблачно+22°C67 %752 мм0.4 м/с9 %
    12:00Практически безоблачно+27°C50 %752 мм1.0 м/с16 %
    15:00Практически безоблачно+28°C46 %752 мм0.6 м/с25 %
    18:00Небольшая облачность+27°C43 %752 мм0.9 м/с37 %
    21:00Ясно и безоблачно+24°C61 %753 мм1.7 м/с9 %
Мы используем cookies
Соглашаюсь